sensor_id;sensor_type;location;lat;lon;timestamp;P1;durP1;ratioP1;P2;durP2;ratioP2
19543;SDS011;9917;51.256;7.152;2023-04-03T00:00:21;7.63;;;5.10;;
19543;SDS011;9917;51.256;7.152;2023-04-03T00:02:46;6.33;;;4.70;;
19543;SDS011;9917;51.256;7.152;2023-04-03T00:05:12;8.20;;;5.57;;
19543;SDS011;9917;51.256;7.152;2023-04-03T00:07:38;5.93;;;5.07;;
19543;SDS011;9917;51.256;7.152;2023-04-03T00:10:04;9.03;;;5.87;;
19543;SDS011;9917;51.256;7.152;2023-04-03T00:12:30;9.83;;;6.30;;
19543;SDS011;9917;51.256;7.152;2023-04-03T00:14:57;9.63;;;6.87;;
19543;SDS011;9917;51.256;7.152;2023-04-03T00:17:23;9.27;;;6.10;;
19543;SDS011;9917;51.256;7.152;2023-04-03T00:19:50;11.43;;;6.87;;
19543;SDS011;9917;51.256;7.152;2023-04-03T00:22:15;8.57;;;6.47;;
19543;SDS011;9917;51.256;7.152;2023-04-03T00:24:41;7.80;;;6.13;;
19543;SDS011;9917;51.256;7.152;2023-04-03T00:27:07;4.97;;;4.40;;
19543;SDS011;9917;51.256;7.152;2023-04-03T00:29:32;8.17;;;4.93;;
19543;SDS011;9917;51.256;7.152;2023-04-03T00:32:00;12.37;;;5.30;;
19543;SDS011;9917;51.256;7.152;2023-04-03T00:34:25;6.70;;;4.67;;
19543;SDS011;9917;51.256;7.152;2023-04-03T00:36:51;8.20;;;5.30;;
19543;SDS011;9917;51.256;7.152;2023-04-03T00:39:17;6.17;;;4.60;;
19543;SDS011;9917;51.256;7.152;2023-04-03T00:41:42;8.47;;;4.77;;
19543;SDS011;9917;51.256;7.152;2023-04-03T00:44:21;6.67;;;4.87;;
19543;SDS011;9917;51.256;7.152;2023-04-03T00:47:09;10.67;;;5.27;;
19543;SDS011;9917;51.256;7.152;2023-04-03T00:49:38;7.60;;;4.97;;
19543;SDS011;9917;51.256;7.152;2023-04-03T00:52:05;7.47;;;5.40;;
19543;SDS011;9917;51.256;7.152;2023-04-03T00:54:35;8.77;;;5.73;;
19543;SDS011;9917;51.256;7.152;2023-04-03T00:57:02;9.80;;;5.73;;
19543;SDS011;9917;51.256;7.152;2023-04-03T00:59:31;7.70;;;5.40;;
19543;SDS011;9917;51.256;7.152;2023-04-03T01:02:00;7.57;;;5.10;;
19543;SDS011;9917;51.256;7.152;2023-04-03T01:04:28;8.27;;;5.60;;
19543;SDS011;9917;51.256;7.152;2023-04-03T01:06:55;9.70;;;6.10;;
19543;SDS011;9917;51.256;7.152;2023-04-03T01:09:22;8.97;;;5.80;;
19543;SDS011;9917;51.256;7.152;2023-04-03T01:11:48;7.87;;;5.73;;
19543;SDS011;9917;51.256;7.152;2023-04-03T01:14:14;9.43;;;6.20;;
19543;SDS011;9917;51.256;7.152;2023-04-03T01:16:40;8.53;;;6.07;;
19543;SDS011;9917;51.256;7.152;2023-04-03T01:19:05;8.80;;;6.00;;
19543;SDS011;9917;51.256;7.152;2023-04-03T01:22:03;9.03;;;6.23;;
19543;SDS011;9917;51.256;7.152;2023-04-03T01:24:38;7.80;;;5.93;;
19543;SDS011;9917;51.256;7.152;2023-04-03T01:27:05;9.00;;;6.40;;
19543;SDS011;9917;51.256;7.152;2023-04-03T01:29:31;10.53;;;6.70;;
19543;SDS011;9917;51.256;7.152;2023-04-03T01:31:59;10.73;;;6.90;;
19543;SDS011;9917;51.256;7.152;2023-04-03T01:34:26;10.93;;;7.33;;
19543;SDS011;9917;51.256;7.152;2023-04-03T01:36:53;12.20;;;7.27;;
19543;SDS011;9917;51.256;7.152;2023-04-03T01:39:19;10.10;;;7.30;;
19543;SDS011;9917;51.256;7.152;2023-04-03T01:41:45;12.77;;;7.30;;
19543;SDS011;9917;51.256;7.152;2023-04-03T01:44:11;11.50;;;7.87;;
19543;SDS011;9917;51.256;7.152;2023-04-03T01:46:37;11.67;;;7.70;;
19543;SDS011;9917;51.256;7.152;2023-04-03T01:49:04;9.37;;;6.87;;
19543;SDS011;9917;51.256;7.152;2023-04-03T01:51:30;10.67;;;7.50;;
19543;SDS011;9917;51.256;7.152;2023-04-03T01:53:56;10.70;;;7.33;;
19543;SDS011;9917;51.256;7.152;2023-04-03T01:56:22;10.70;;;7.90;;
19543;SDS011;9917;51.256;7.152;2023-04-03T01:58:48;10.13;;;6.53;;
19543;SDS011;9917;51.256;7.152;2023-04-03T02:01:13;9.23;;;6.17;;
19543;SDS011;9917;51.256;7.152;2023-04-03T02:03:39;10.13;;;6.90;;
19543;SDS011;9917;51.256;7.152;2023-04-03T02:06:06;8.87;;;6.10;;
19543;SDS011;9917;51.256;7.152;2023-04-03T02:08:32;10.03;;;6.97;;
19543;SDS011;9917;51.256;7.152;2023-04-03T02:10:58;9.20;;;6.90;;
19543;SDS011;9917;51.256;7.152;2023-04-03T02:13:23;10.13;;;6.90;;
19543;SDS011;9917;51.256;7.152;2023-04-03T02:15:49;12.60;;;7.37;;
19543;SDS011;9917;51.256;7.152;2023-04-03T02:18:15;10.47;;;7.13;;
19543;SDS011;9917;51.256;7.152;2023-04-03T02:20:41;8.00;;;6.37;;
19543;SDS011;9917;51.256;7.152;2023-04-03T02:23:09;10.07;;;6.60;;
19543;SDS011;9917;51.256;7.152;2023-04-03T02:25:34;8.00;;;6.10;;
19543;SDS011;9917;51.256;7.152;2023-04-03T02:28:00;10.47;;;6.63;;
19543;SDS011;9917;51.256;7.152;2023-04-03T02:30:26;10.40;;;6.83;;
19543;SDS011;9917;51.256;7.152;2023-04-03T02:32:52;10.73;;;6.43;;
19543;SDS011;9917;51.256;7.152;2023-04-03T02:35:17;9.77;;;6.30;;
19543;SDS011;9917;51.256;7.152;2023-04-03T02:37:46;12.03;;;6.60;;
19543;SDS011;9917;51.256;7.152;2023-04-03T02:40:13;9.03;;;6.97;;
19543;SDS011;9917;51.256;7.152;2023-04-03T02:42:39;9.83;;;6.60;;
19543;SDS011;9917;51.256;7.152;2023-04-03T02:45:05;7.93;;;6.60;;
19543;SDS011;9917;51.256;7.152;2023-04-03T02:47:31;9.90;;;6.60;;
19543;SDS011;9917;51.256;7.152;2023-04-03T02:49:57;10.03;;;6.57;;
19543;SDS011;9917;51.256;7.152;2023-04-03T02:52:23;9.43;;;6.97;;
19543;SDS011;9917;51.256;7.152;2023-04-03T02:54:49;8.67;;;6.07;;
19543;SDS011;9917;51.256;7.152;2023-04-03T02:57:16;9.70;;;7.57;;
19543;SDS011;9917;51.256;7.152;2023-04-03T02:59:41;9.33;;;6.43;;
19543;SDS011;9917;51.256;7.152;2023-04-03T03:02:07;9.97;;;6.40;;
19543;SDS011;9917;51.256;7.152;2023-04-03T03:04:33;7.30;;;6.20;;
19543;SDS011;9917;51.256;7.152;2023-04-03T03:06:59;10.77;;;6.90;;
19543;SDS011;9917;51.256;7.152;2023-04-03T03:09:24;10.40;;;6.53;;
19543;SDS011;9917;51.256;7.152;2023-04-03T03:11:50;11.43;;;6.50;;
19543;SDS011;9917;51.256;7.152;2023-04-03T03:14:17;7.63;;;6.30;;
19543;SDS011;9917;51.256;7.152;2023-04-03T03:16:43;7.90;;;6.40;;
19543;SDS011;9917;51.256;7.152;2023-04-03T03:19:09;10.40;;;6.30;;
19543;SDS011;9917;51.256;7.152;2023-04-03T03:21:35;11.70;;;6.50;;
19543;SDS011;9917;51.256;7.152;2023-04-03T03:24:00;10.97;;;6.20;;
19543;SDS011;9917;51.256;7.152;2023-04-03T03:26:26;9.63;;;6.47;;
19543;SDS011;9917;51.256;7.152;2023-04-03T03:28:52;9.93;;;6.60;;
19543;SDS011;9917;51.256;7.152;2023-04-03T03:31:19;12.60;;;6.90;;
19543;SDS011;9917;51.256;7.152;2023-04-03T03:33:45;10.40;;;6.83;;
19543;SDS011;9917;51.256;7.152;2023-04-03T03:36:11;8.20;;;5.97;;
19543;SDS011;9917;51.256;7.152;2023-04-03T03:38:37;8.10;;;6.57;;
19543;SDS011;9917;51.256;7.152;2023-04-03T03:41:03;9.97;;;6.17;;
19543;SDS011;9917;51.256;7.152;2023-04-03T03:43:28;9.40;;;5.93;;
19543;SDS011;9917;51.256;7.152;2023-04-03T03:45:54;10.97;;;6.10;;
19543;SDS011;9917;51.256;7.152;2023-04-03T03:48:23;9.90;;;6.60;;
19543;SDS011;9917;51.256;7.152;2023-04-03T03:50:48;10.07;;;6.57;;
19543;SDS011;9917;51.256;7.152;2023-04-03T03:53:15;8.13;;;5.73;;
19543;SDS011;9917;51.256;7.152;2023-04-03T03:55:40;8.13;;;5.70;;
19543;SDS011;9917;51.256;7.152;2023-04-03T03:58:07;8.37;;;5.87;;
19543;SDS011;9917;51.256;7.152;2023-04-03T04:00:33;9.07;;;6.03;;
19543;SDS011;9917;51.256;7.152;2023-04-03T04:02:59;10.90;;;5.70;;
19543;SDS011;9917;51.256;7.152;2023-04-03T04:05:26;9.30;;;5.60;;
19543;SDS011;9917;51.256;7.152;2023-04-03T04:07:52;9.30;;;6.20;;
19543;SDS011;9917;51.256;7.152;2023-04-03T04:10:18;7.00;;;5.30;;
19543;SDS011;9917;51.256;7.152;2023-04-03T04:12:44;10.90;;;6.00;;
19543;SDS011;9917;51.256;7.152;2023-04-03T04:15:11;9.23;;;5.57;;
19543;SDS011;9917;51.256;7.152;2023-04-03T04:17:37;8.33;;;5.30;;
19543;SDS011;9917;51.256;7.152;2023-04-03T04:20:03;11.40;;;5.67;;
19543;SDS011;9917;51.256;7.152;2023-04-03T04:22:30;10.77;;;5.87;;
19543;SDS011;9917;51.256;7.152;2023-04-03T04:24:56;9.80;;;5.80;;
19543;SDS011;9917;51.256;7.152;2023-04-03T04:27:22;8.50;;;6.30;;
19543;SDS011;9917;51.256;7.152;2023-04-03T04:29:47;6.97;;;5.50;;
19543;SDS011;9917;51.256;7.152;2023-04-03T04:32:13;10.73;;;5.67;;
19543;SDS011;9917;51.256;7.152;2023-04-03T04:34:39;9.50;;;5.53;;
19543;SDS011;9917;51.256;7.152;2023-04-03T04:37:05;10.03;;;5.67;;
19543;SDS011;9917;51.256;7.152;2023-04-03T04:39:32;8.07;;;5.50;;
19543;SDS011;9917;51.256;7.152;2023-04-03T04:41:58;9.07;;;5.17;;
19543;SDS011;9917;51.256;7.152;2023-04-03T04:44:23;9.40;;;5.40;;
19543;SDS011;9917;51.256;7.152;2023-04-03T04:46:49;9.33;;;5.37;;
19543;SDS011;9917;51.256;7.152;2023-04-03T04:49:15;8.47;;;5.13;;
19543;SDS011;9917;51.256;7.152;2023-04-03T04:51:40;7.87;;;5.80;;
19543;SDS011;9917;51.256;7.152;2023-04-03T04:54:06;11.50;;;5.57;;
19543;SDS011;9917;51.256;7.152;2023-04-03T04:56:33;13.43;;;6.03;;
19543;SDS011;9917;51.256;7.152;2023-04-03T04:58:59;8.03;;;4.80;;
19543;SDS011;9917;51.256;7.152;2023-04-03T05:01:24;10.87;;;5.47;;
19543;SDS011;9917;51.256;7.152;2023-04-03T05:03:50;9.23;;;5.03;;
19543;SDS011;9917;51.256;7.152;2023-04-03T05:06:16;10.60;;;5.10;;
19543;SDS011;9917;51.256;7.152;2023-04-03T05:08:42;10.47;;;5.97;;
19543;SDS011;9917;51.256;7.152;2023-04-03T05:11:07;10.57;;;4.90;;
19543;SDS011;9917;51.256;7.152;2023-04-03T05:13:34;8.87;;;4.97;;
19543;SDS011;9917;51.256;7.152;2023-04-03T05:16:00;7.57;;;5.20;;
19543;SDS011;9917;51.256;7.152;2023-04-03T05:18:26;9.60;;;5.20;;
19543;SDS011;9917;51.256;7.152;2023-04-03T05:20:51;10.33;;;5.10;;
19543;SDS011;9917;51.256;7.152;2023-04-03T05:23:18;9.73;;;5.87;;
19543;SDS011;9917;51.256;7.152;2023-04-03T05:25:44;10.43;;;5.33;;
19543;SDS011;9917;51.256;7.152;2023-04-03T05:28:10;8.20;;;5.17;;
19543;SDS011;9917;51.256;7.152;2023-04-03T05:30:37;6.60;;;5.43;;
19543;SDS011;9917;51.256;7.152;2023-04-03T05:33:03;7.67;;;5.27;;
19543;SDS011;9917;51.256;7.152;2023-04-03T05:35:29;9.43;;;5.17;;
19543;SDS011;9917;51.256;7.152;2023-04-03T05:37:55;8.43;;;4.70;;
19543;SDS011;9917;51.256;7.152;2023-04-03T05:40:20;11.17;;;5.17;;
19543;SDS011;9917;51.256;7.152;2023-04-03T05:42:46;7.20;;;4.47;;
19543;SDS011;9917;51.256;7.152;2023-04-03T05:45:12;5.97;;;4.33;;
19543;SDS011;9917;51.256;7.152;2023-04-03T05:47:39;9.83;;;4.70;;
19543;SDS011;9917;51.256;7.152;2023-04-03T05:50:05;7.77;;;4.30;;
19543;SDS011;9917;51.256;7.152;2023-04-03T05:52:31;8.50;;;4.23;;
19543;SDS011;9917;51.256;7.152;2023-04-03T05:55:01;6.87;;;4.13;;
19543;SDS011;9917;51.256;7.152;2023-04-03T05:57:27;5.87;;;4.13;;
19543;SDS011;9917;51.256;7.152;2023-04-03T05:59:52;7.47;;;4.57;;
19543;SDS011;9917;51.256;7.152;2023-04-03T06:02:19;11.43;;;4.20;;
19543;SDS011;9917;51.256;7.152;2023-04-03T06:04:47;10.63;;;4.07;;
19543;SDS011;9917;51.256;7.152;2023-04-03T06:07:14;8.23;;;4.07;;
19543;SDS011;9917;51.256;7.152;2023-04-03T06:09:40;8.70;;;3.97;;
19543;SDS011;9917;51.256;7.152;2023-04-03T06:12:07;9.30;;;3.53;;
19543;SDS011;9917;51.256;7.152;2023-04-03T06:14:33;8.77;;;4.10;;
19543;SDS011;9917;51.256;7.152;2023-04-03T06:16:59;7.83;;;3.67;;
19543;SDS011;9917;51.256;7.152;2023-04-03T06:19:25;7.37;;;4.07;;
19543;SDS011;9917;51.256;7.152;2023-04-03T06:21:52;5.63;;;3.30;;
19543;SDS011;9917;51.256;7.152;2023-04-03T06:24:18;11.93;;;5.27;;
19543;SDS011;9917;51.256;7.152;2023-04-03T06:26:44;10.00;;;3.90;;
19543;SDS011;9917;51.256;7.152;2023-04-03T06:29:10;10.20;;;3.40;;
19543;SDS011;9917;51.256;7.152;2023-04-03T06:31:36;6.97;;;3.17;;
19543;SDS011;9917;51.256;7.152;2023-04-03T06:34:01;5.30;;;2.93;;
19543;SDS011;9917;51.256;7.152;2023-04-03T06:36:28;6.43;;;3.10;;
19543;SDS011;9917;51.256;7.152;2023-04-03T06:38:55;7.53;;;3.23;;
19543;SDS011;9917;51.256;7.152;2023-04-03T06:41:21;7.63;;;3.00;;
19543;SDS011;9917;51.256;7.152;2023-04-03T06:43:47;5.67;;;2.83;;
19543;SDS011;9917;51.256;7.152;2023-04-03T06:46:14;8.10;;;2.80;;
19543;SDS011;9917;51.256;7.152;2023-04-03T06:48:40;7.30;;;3.10;;
19543;SDS011;9917;51.256;7.152;2023-04-03T06:51:06;5.23;;;2.67;;
19543;SDS011;9917;51.256;7.152;2023-04-03T06:53:33;9.03;;;3.67;;
19543;SDS011;9917;51.256;7.152;2023-04-03T06:56:00;12.27;;;2.93;;
19543;SDS011;9917;51.256;7.152;2023-04-03T06:58:26;10.17;;;2.90;;
19543;SDS011;9917;51.256;7.152;2023-04-03T07:00:52;9.17;;;2.93;;
19543;SDS011;9917;51.256;7.152;2023-04-03T07:03:17;6.93;;;2.90;;
19543;SDS011;9917;51.256;7.152;2023-04-03T07:05:43;7.03;;;3.20;;
19543;SDS011;9917;51.256;7.152;2023-04-03T07:08:09;9.77;;;3.23;;
19543;SDS011;9917;51.256;7.152;2023-04-03T07:10:34;14.27;;;7.37;;
19543;SDS011;9917;51.256;7.152;2023-04-03T07:13:01;13.50;;;5.53;;
19543;SDS011;9917;51.256;7.152;2023-04-03T07:15:27;17.67;;;8.57;;
19543;SDS011;9917;51.256;7.152;2023-04-03T07:17:53;8.70;;;5.07;;
19543;SDS011;9917;51.256;7.152;2023-04-03T07:20:19;12.13;;;4.77;;
19543;SDS011;9917;51.256;7.152;2023-04-03T07:22:44;9.27;;;3.67;;
19543;SDS011;9917;51.256;7.152;2023-04-03T07:25:10;7.07;;;3.13;;
19543;SDS011;9917;51.256;7.152;2023-04-03T07:27:36;7.30;;;3.33;;
19543;SDS011;9917;51.256;7.152;2023-04-03T07:30:03;5.53;;;2.70;;
19543;SDS011;9917;51.256;7.152;2023-04-03T07:32:29;9.03;;;3.57;;
19543;SDS011;9917;51.256;7.152;2023-04-03T07:34:55;10.70;;;3.10;;
19543;SDS011;9917;51.256;7.152;2023-04-03T07:37:21;7.07;;;2.83;;
19543;SDS011;9917;51.256;7.152;2023-04-03T07:39:46;9.13;;;3.40;;
19543;SDS011;9917;51.256;7.152;2023-04-03T07:42:12;6.80;;;2.83;;
19543;SDS011;9917;51.256;7.152;2023-04-03T07:44:38;4.70;;;2.63;;
19543;SDS011;9917;51.256;7.152;2023-04-03T07:47:05;8.07;;;2.43;;
19543;SDS011;9917;51.256;7.152;2023-04-03T07:49:31;5.90;;;2.30;;
19543;SDS011;9917;51.256;7.152;2023-04-03T07:51:56;4.80;;;2.03;;
19543;SDS011;9917;51.256;7.152;2023-04-03T07:54:22;9.07;;;2.33;;
19543;SDS011;9917;51.256;7.152;2023-04-03T07:56:48;6.40;;;2.20;;
19543;SDS011;9917;51.256;7.152;2023-04-03T07:59:14;6.50;;;2.27;;
19543;SDS011;9917;51.256;7.152;2023-04-03T08:01:39;5.67;;;1.77;;
19543;SDS011;9917;51.256;7.152;2023-04-03T08:04:06;3.70;;;1.90;;
19543;SDS011;9917;51.256;7.152;2023-04-03T08:06:32;6.67;;;1.93;;
19543;SDS011;9917;51.256;7.152;2023-04-03T08:08:58;3.93;;;1.77;;
19543;SDS011;9917;51.256;7.152;2023-04-03T08:11:24;4.38;;;1.42;;
19543;SDS011;9917;51.256;7.152;2023-04-03T08:13:49;3.47;;;1.30;;
19543;SDS011;9917;51.256;7.152;2023-04-03T08:16:16;4.22;;;1.50;;
19543;SDS011;9917;51.256;7.152;2023-04-03T08:18:44;4.28;;;1.50;;
19543;SDS011;9917;51.256;7.152;2023-04-03T08:21:12;3.95;;;1.33;;
19543;SDS011;9917;51.256;7.152;2023-04-03T08:23:38;3.88;;;1.30;;
19543;SDS011;9917;51.256;7.152;2023-04-03T08:26:05;6.07;;;1.33;;
19543;SDS011;9917;51.256;7.152;2023-04-03T08:28:32;2.67;;;1.30;;
19543;SDS011;9917;51.256;7.152;2023-04-03T08:31:02;2.22;;;0.90;;
19543;SDS011;9917;51.256;7.152;2023-04-03T08:33:28;4.18;;;1.42;;
19543;SDS011;9917;51.256;7.152;2023-04-03T08:35:54;4.28;;;1.35;;
19543;SDS011;9917;51.256;7.152;2023-04-03T08:38:21;3.05;;;0.90;;
19543;SDS011;9917;51.256;7.152;2023-04-03T08:40:47;2.85;;;1.00;;
19543;SDS011;9917;51.256;7.152;2023-04-03T08:43:27;3.22;;;0.88;;
19543;SDS011;9917;51.256;7.152;2023-04-03T08:46:00;3.53;;;1.05;;
19543;SDS011;9917;51.256;7.152;2023-04-03T08:48:31;3.45;;;0.95;;
19543;SDS011;9917;51.256;7.152;2023-04-03T08:51:00;3.78;;;1.23;;
19543;SDS011;9917;51.256;7.152;2023-04-03T08:53:32;3.10;;;1.17;;
19543;SDS011;9917;51.256;7.152;2023-04-03T08:56:00;4.03;;;1.08;;
19543;SDS011;9917;51.256;7.152;2023-04-03T08:58:30;2.50;;;0.70;;
19543;SDS011;9917;51.256;7.152;2023-04-03T09:01:02;4.68;;;0.90;;
19543;SDS011;9917;51.256;7.152;2023-04-03T09:03:30;2.85;;;0.95;;
19543;SDS011;9917;51.256;7.152;2023-04-03T09:05:57;4.95;;;0.80;;
19543;SDS011;9917;51.256;7.152;2023-04-03T09:08:28;2.35;;;0.88;;
19543;SDS011;9917;51.256;7.152;2023-04-03T09:11:05;2.67;;;0.95;;
19543;SDS011;9917;51.256;7.152;2023-04-03T09:13:40;1.83;;;0.73;;
19543;SDS011;9917;51.256;7.152;2023-04-03T09:16:17;12.10;;;4.32;;
19543;SDS011;9917;51.256;7.152;2023-04-03T09:18:51;5.93;;;1.45;;
19543;SDS011;9917;51.256;7.152;2023-04-03T09:21:23;4.20;;;0.90;;
19543;SDS011;9917;51.256;7.152;2023-04-03T09:23:57;6.68;;;0.82;;
19543;SDS011;9917;51.256;7.152;2023-04-03T09:26:30;3.33;;;0.80;;
19543;SDS011;9917;51.256;7.152;2023-04-03T09:29:01;2.45;;;0.85;;
19543;SDS011;9917;51.256;7.152;2023-04-03T09:31:30;2.40;;;0.63;;
19543;SDS011;9917;51.256;7.152;2023-04-03T09:34:02;3.88;;;0.82;;
19543;SDS011;9917;51.256;7.152;2023-04-03T09:36:42;2.35;;;0.90;;
19543;SDS011;9917;51.256;7.152;2023-04-03T09:39:12;4.35;;;0.70;;
19543;SDS011;9917;51.256;7.152;2023-04-03T09:41:39;2.85;;;0.80;;
19543;SDS011;9917;51.256;7.152;2023-04-03T09:44:17;4.93;;;1.00;;
19543;SDS011;9917;51.256;7.152;2023-04-03T09:46:46;2.67;;;0.77;;
19543;SDS011;9917;51.256;7.152;2023-04-03T09:49:12;5.22;;;1.17;;
19543;SDS011;9917;51.256;7.152;2023-04-03T09:51:38;2.03;;;0.80;;
19543;SDS011;9917;51.256;7.152;2023-04-03T09:54:24;3.90;;;0.95;;
19543;SDS011;9917;51.256;7.152;2023-04-03T09:56:55;2.45;;;0.80;;
19543;SDS011;9917;51.256;7.152;2023-04-03T09:59:25;2.25;;;0.80;;
19543;SDS011;9917;51.256;7.152;2023-04-03T10:01:56;2.22;;;0.73;;
19543;SDS011;9917;51.256;7.152;2023-04-03T10:04:23;4.90;;;1.00;;
19543;SDS011;9917;51.256;7.152;2023-04-03T10:06:50;2.80;;;0.77;;
19543;SDS011;9917;51.256;7.152;2023-04-03T10:09:20;3.20;;;0.68;;
19543;SDS011;9917;51.256;7.152;2023-04-03T10:11:58;2.35;;;0.52;;
19543;SDS011;9917;51.256;7.152;2023-04-03T10:14:28;1.90;;;0.60;;
19543;SDS011;9917;51.256;7.152;2023-04-03T10:16:56;2.17;;;0.50;;
19543;SDS011;9917;51.256;7.152;2023-04-03T10:19:35;1.73;;;0.55;;
19543;SDS011;9917;51.256;7.152;2023-04-03T10:22:08;1.63;;;0.50;;
19543;SDS011;9917;51.256;7.152;2023-04-03T10:24:47;3.38;;;0.50;;
19543;SDS011;9917;51.256;7.152;2023-04-03T10:27:18;1.20;;;0.40;;
19543;SDS011;9917;51.256;7.152;2023-04-03T10:29:51;1.88;;;0.90;;
19543;SDS011;9917;51.256;7.152;2023-04-03T10:32:28;2.75;;;0.70;;
19543;SDS011;9917;51.256;7.152;2023-04-03T10:35:08;3.72;;;1.65;;
19543;SDS011;9917;51.256;7.152;2023-04-03T10:37:45;2.83;;;0.80;;
19543;SDS011;9917;51.256;7.152;2023-04-03T10:40:24;3.65;;;1.35;;
19543;SDS011;9917;51.256;7.152;2023-04-03T10:42:55;22.55;;;2.17;;
19543;SDS011;9917;51.256;7.152;2023-04-03T10:45:28;2.53;;;0.70;;
19543;SDS011;9917;51.256;7.152;2023-04-03T10:48:00;2.00;;;0.60;;
19543;SDS011;9917;51.256;7.152;2023-04-03T10:50:37;2.78;;;0.50;;
19543;SDS011;9917;51.256;7.152;2023-04-03T10:53:08;1.83;;;0.40;;
19543;SDS011;9917;51.256;7.152;2023-04-03T10:55:41;3.08;;;0.82;;
19543;SDS011;9917;51.256;7.152;2023-04-03T11:00:45;1.63;;;0.38;;
19543;SDS011;9917;51.256;7.152;2023-04-03T11:03:13;1.98;;;0.52;;
19543;SDS011;9917;51.256;7.152;2023-04-03T11:05:47;4.38;;;0.65;;
19543;SDS011;9917;51.256;7.152;2023-04-03T11:08:17;2.58;;;0.65;;
19543;SDS011;9917;51.256;7.152;2023-04-03T11:10:51;2.65;;;0.57;;
19543;SDS011;9917;51.256;7.152;2023-04-03T11:13:24;3.22;;;0.82;;
19543;SDS011;9917;51.256;7.152;2023-04-03T11:15:55;1.77;;;0.43;;
19543;SDS011;9917;51.256;7.152;2023-04-03T11:18:24;1.00;;;0.30;;
19543;SDS011;9917;51.256;7.152;2023-04-03T11:20:58;1.10;;;0.40;;
19543;SDS011;9917;51.256;7.152;2023-04-03T11:23:28;1.83;;;0.30;;
19543;SDS011;9917;51.256;7.152;2023-04-03T11:26:00;2.97;;;0.77;;
19543;SDS011;9917;51.256;7.152;2023-04-03T11:28:33;2.55;;;0.50;;
19543;SDS011;9917;51.256;7.152;2023-04-03T11:31:01;4.10;;;1.17;;
19543;SDS011;9917;51.256;7.152;2023-04-03T11:33:41;3.28;;;0.57;;
19543;SDS011;9917;51.256;7.152;2023-04-03T11:36:18;2.92;;;0.90;;
19543;SDS011;9917;51.256;7.152;2023-04-03T11:38:47;1.45;;;0.40;;
19543;SDS011;9917;51.256;7.152;2023-04-03T11:41:18;1.85;;;0.40;;
19543;SDS011;9917;51.256;7.152;2023-04-03T11:43:55;1.92;;;0.52;;
19543;SDS011;9917;51.256;7.152;2023-04-03T11:46:27;2.67;;;0.30;;
19543;SDS011;9917;51.256;7.152;2023-04-03T11:52:23;2.10;;;0.55;;
19543;SDS011;9917;51.256;7.152;2023-04-03T11:55:45;1.33;;;0.50;;
19543;SDS011;9917;51.256;7.152;2023-04-03T11:58:19;2.33;;;0.70;;
19543;SDS011;9917;51.256;7.152;2023-04-03T12:09:34;4.53;;;0.90;;
19543;SDS011;9917;51.256;7.152;2023-04-03T12:12:27;1.92;;;0.43;;
19543;SDS011;9917;51.256;7.152;2023-04-03T12:21:15;2.83;;;0.90;;
19543;SDS011;9917;51.256;7.152;2023-04-03T12:23:58;4.47;;;0.90;;
19543;SDS011;9917;51.256;7.152;2023-04-03T12:26:30;5.38;;;1.02;;
19543;SDS011;9917;51.256;7.152;2023-04-03T12:29:02;2.75;;;0.57;;
19543;SDS011;9917;51.256;7.152;2023-04-03T12:31:43;3.10;;;0.60;;
19543;SDS011;9917;51.256;7.152;2023-04-03T12:34:24;3.38;;;0.70;;
19543;SDS011;9917;51.256;7.152;2023-04-03T12:37:03;2.20;;;0.57;;
19543;SDS011;9917;51.256;7.152;2023-04-03T12:39:42;2.38;;;0.50;;
19543;SDS011;9917;51.256;7.152;2023-04-03T12:42:23;2.08;;;0.80;;
19543;SDS011;9917;51.256;7.152;2023-04-03T12:45:17;3.35;;;1.55;;
19543;SDS011;9917;51.256;7.152;2023-04-03T12:47:48;4.00;;;0.80;;
19543;SDS011;9917;51.256;7.152;2023-04-03T12:50:17;1.95;;;0.40;;
19543;SDS011;9917;51.256;7.152;2023-04-03T12:52:47;4.80;;;0.70;;
19543;SDS011;9917;51.256;7.152;2023-04-03T12:55:19;2.58;;;0.60;;
19543;SDS011;9917;51.256;7.152;2023-04-03T12:57:45;4.63;;;1.05;;
19543;SDS011;9917;51.256;7.152;2023-04-03T13:00:19;5.13;;;0.90;;
19543;SDS011;9917;51.256;7.152;2023-04-03T13:02:56;2.65;;;0.73;;
19543;SDS011;9917;51.256;7.152;2023-04-03T13:05:22;2.35;;;0.47;;
19543;SDS011;9917;51.256;7.152;2023-04-03T13:07:49;1.48;;;0.47;;
19543;SDS011;9917;51.256;7.152;2023-04-03T13:10:18;3.13;;;1.15;;
19543;SDS011;9917;51.256;7.152;2023-04-03T13:12:48;2.03;;;0.98;;
19543;SDS011;9917;51.256;7.152;2023-04-03T13:15:16;4.60;;;1.48;;
19543;SDS011;9917;51.256;7.152;2023-04-03T13:17:44;4.80;;;2.10;;
19543;SDS011;9917;51.256;7.152;2023-04-03T13:20:14;3.15;;;1.27;;
19543;SDS011;9917;51.256;7.152;2023-04-03T13:22:46;3.75;;;1.30;;
19543;SDS011;9917;51.256;7.152;2023-04-03T13:25:16;4.63;;;1.40;;
19543;SDS011;9917;51.256;7.152;2023-04-03T13:27:44;3.33;;;1.20;;
19543;SDS011;9917;51.256;7.152;2023-04-03T13:30:21;4.13;;;1.13;;
19543;SDS011;9917;51.256;7.152;2023-04-03T13:32:50;2.83;;;0.60;;
19543;SDS011;9917;51.256;7.152;2023-04-03T13:35:31;3.17;;;1.45;;
19543;SDS011;9917;51.256;7.152;2023-04-03T13:37:59;6.97;;;2.65;;
19543;SDS011;9917;51.256;7.152;2023-04-03T13:40:27;2.00;;;0.90;;
19543;SDS011;9917;51.256;7.152;2023-04-03T13:43:00;4.63;;;1.05;;
19543;SDS011;9917;51.256;7.152;2023-04-03T13:45:28;6.13;;;1.65;;
19543;SDS011;9917;51.256;7.152;2023-04-03T13:48:06;2.67;;;0.68;;
19543;SDS011;9917;51.256;7.152;2023-04-03T13:50:48;3.20;;;1.17;;
19543;SDS011;9917;51.256;7.152;2023-04-03T13:53:17;2.03;;;0.80;;
19543;SDS011;9917;51.256;7.152;2023-04-03T13:55:52;3.83;;;1.00;;
19543;SDS011;9917;51.256;7.152;2023-04-03T13:58:21;3.75;;;0.77;;
19543;SDS011;9917;51.256;7.152;2023-04-03T14:00:49;2.40;;;0.60;;
19543;SDS011;9917;51.256;7.152;2023-04-03T14:03:17;3.17;;;0.82;;
19543;SDS011;9917;51.256;7.152;2023-04-03T14:05:47;2.53;;;0.60;;
19543;SDS011;9917;51.256;7.152;2023-04-03T14:08:13;2.00;;;0.80;;
19543;SDS011;9917;51.256;7.152;2023-04-03T14:10:39;2.42;;;0.68;;
19543;SDS011;9917;51.256;7.152;2023-04-03T14:13:04;4.50;;;0.70;;
19543;SDS011;9917;51.256;7.152;2023-04-03T14:15:30;2.45;;;0.65;;
19543;SDS011;9917;51.256;7.152;2023-04-03T14:17:57;4.28;;;0.75;;
19543;SDS011;9917;51.256;7.152;2023-04-03T14:20:23;3.20;;;1.40;;
19543;SDS011;9917;51.256;7.152;2023-04-03T14:22:52;3.17;;;0.75;;
19543;SDS011;9917;51.256;7.152;2023-04-03T14:25:19;1.38;;;0.60;;
19543;SDS011;9917;51.256;7.152;2023-04-03T14:27:46;3.78;;;0.90;;
19543;SDS011;9917;51.256;7.152;2023-04-03T14:30:16;2.35;;;0.80;;
19543;SDS011;9917;51.256;7.152;2023-04-03T14:32:43;1.85;;;0.63;;
19543;SDS011;9917;51.256;7.152;2023-04-03T14:35:09;3.70;;;0.90;;
19543;SDS011;9917;51.256;7.152;2023-04-03T14:37:35;2.53;;;0.75;;
19543;SDS011;9917;51.256;7.152;2023-04-03T14:40:03;3.08;;;1.00;;
19543;SDS011;9917;51.256;7.152;2023-04-03T14:42:31;3.47;;;1.13;;
19543;SDS011;9917;51.256;7.152;2023-04-03T14:44:58;4.50;;;1.60;;
19543;SDS011;9917;51.256;7.152;2023-04-03T14:47:26;4.30;;;0.80;;
19543;SDS011;9917;51.256;7.152;2023-04-03T14:49:54;3.55;;;0.95;;
19543;SDS011;9917;51.256;7.152;2023-04-03T14:52:20;2.67;;;1.00;;
19543;SDS011;9917;51.256;7.152;2023-04-03T14:54:47;3.42;;;0.70;;
19543;SDS011;9917;51.256;7.152;2023-04-03T14:57:16;3.83;;;0.73;;
19543;SDS011;9917;51.256;7.152;2023-04-03T14:59:42;4.80;;;2.00;;
19543;SDS011;9917;51.256;7.152;2023-04-03T15:02:18;1.60;;;0.63;;
19543;SDS011;9917;51.256;7.152;2023-04-03T15:04:50;3.72;;;0.70;;
19543;SDS011;9917;51.256;7.152;2023-04-03T15:07:16;4.95;;;0.77;;
19543;SDS011;9917;51.256;7.152;2023-04-03T15:09:42;3.60;;;0.63;;
19543;SDS011;9917;51.256;7.152;2023-04-03T15:12:08;4.50;;;0.65;;
19543;SDS011;9917;51.256;7.152;2023-04-03T15:14:35;3.75;;;0.70;;
19543;SDS011;9917;51.256;7.152;2023-04-03T15:17:01;2.30;;;0.60;;
19543;SDS011;9917;51.256;7.152;2023-04-03T15:19:27;2.22;;;0.57;;
19543;SDS011;9917;51.256;7.152;2023-04-03T15:21:53;2.85;;;0.82;;
19543;SDS011;9917;51.256;7.152;2023-04-03T15:24:18;3.03;;;0.70;;
19543;SDS011;9917;51.256;7.152;2023-04-03T15:26:45;1.40;;;0.50;;